< < Back
Terminal Aerodrome Forecast


Current Version              Previous Versions:   1  2  3  4  5  6  7  8  9  

Terminal Aerodrome Forecast

094
FTUS42 KTAE 282320
TAFDHN
TAF
KDHN 282320Z 2900/2924 25004KT P6SM FEW050
     FM291800 26008KT P6SM VCTS SCT060CB=

Latest METAR

685
SAUS70 KWBC 290200 RRD
MTRDHN
METAR KDHN 290153Z 20004KT 10SM CLR 28/23 A3005 RMK AO2 SLP170
T02780233


USA.gov is the U.S. government's official web portal to all federal, state and local government web resources and services.